Time;durP1;ratioP1;P1;durP2;ratioP2;P2;SDS_P1;SDS_P2;PMS_P1;PMS_P2;Temp;Humidity;BMP_temperature;BMP_pressure;BME280_temperature;BME280_humidity;BME280_pressure;Samples;Min_cycle;Max_cycle;Signal;HPM_P1;HPM_P2
2023/03/21 00:01:06;;;;;;;0.30;0.30;;;6.30;99.90;;;;;;5033402;28;20203;-68
2023/03/21 00:03:33;;;;;;;0.40;0.40;;;6.30;99.90;;;;;;5032954;28;20672;-69
2023/03/21 00:06:04;;;;;;;0.30;0.30;;;6.30;99.90;;;;;;5032878;28;20593;-69
2023/03/21 00:08:30;;;;;;;0.50;0.50;;;6.30;99.90;;;;;;5033637;28;20671;-69
2023/03/21 00:11:00;;;;;;;0.40;0.40;;;6.20;99.90;;;;;;5033384;28;20168;-68
2023/03/21 00:13:31;;;;;;;2.15;1.30;;;6.20;99.90;;;;;;5032888;28;20195;-69
2023/03/21 00:16:06;;;;;;;0.40;0.40;;;6.10;99.90;;;;;;5033008;28;20177;-69
2023/03/21 00:18:35;;;;;;;0.40;0.40;;;6.10;99.90;;;;;;5033384;28;20178;-69
2023/03/21 00:21:03;;;;;;;0.40;0.40;;;6.00;99.90;;;;;;5015362;28;20247;-68
2023/03/21 00:23:30;;;;;;;0.30;0.30;;;6.10;99.90;;;;;;5035971;28;20209;-68
2023/03/21 00:25:56;;;;;;;0.30;0.30;;;6.10;99.90;;;;;;5018979;28;20178;-69
2023/03/21 00:28:23;;;;;;;0.40;0.40;;;5.80;99.90;;;;;;5036575;28;20198;-68
2023/03/21 00:30:49;;;;;;;0.40;0.40;;;5.80;99.90;;;;;;5037055;28;20179;-69
2023/03/21 00:33:14;;;;;;;0.40;0.40;;;5.80;99.90;;;;;;5036305;28;20187;-68
2023/03/21 00:35:46;;;;;;;0.70;0.70;;;5.70;99.90;;;;;;5036730;28;20178;-69
2023/03/21 00:38:13;;;;;;;0.50;0.50;;;5.80;99.90;;;;;;5036586;28;20194;-68
2023/03/21 00:40:39;;;;;;;0.52;0.52;;;5.80;99.90;;;;;;5036682;28;20682;-69
2023/03/21 00:43:04;;;;;;;0.30;0.30;;;5.70;99.90;;;;;;5036476;28;20199;-69
2023/03/21 00:45:30;;;;;;;0.50;0.50;;;5.60;99.90;;;;;;5036597;28;20653;-68
2023/03/21 00:47:56;;;;;;;0.33;0.33;;;5.60;99.90;;;;;;5036248;28;20442;-68
2023/03/21 00:50:23;;;;;;;0.30;0.30;;;5.40;99.90;;;;;;5036292;28;20407;-69
2023/03/21 00:52:48;;;;;;;1.25;0.88;;;5.40;99.90;;;;;;5036312;28;20429;-68
2023/03/21 00:55:16;;;;;;;0.40;0.40;;;5.40;99.90;;;;;;5036438;28;20184;-68
2023/03/21 00:57:44;;;;;;;0.45;0.45;;;5.50;99.90;;;;;;5036396;28;20529;-68
2023/03/21 01:00:12;;;;;;;0.30;0.30;;;5.50;99.90;;;;;;5036623;28;20167;-68
2023/03/21 01:02:41;;;;;;;0.40;0.40;;;5.50;99.90;;;;;;5036360;28;20184;-69
2023/03/21 01:05:09;;;;;;;0.50;0.50;;;5.40;99.90;;;;;;5036266;28;20163;-69
2023/03/21 01:07:34;;;;;;;0.68;0.68;;;5.30;99.90;;;;;;5035976;28;20178;-69
2023/03/21 01:10:00;;;;;;;0.40;0.40;;;5.20;99.90;;;;;;5018762;28;20252;-69
2023/03/21 01:12:26;;;;;;;0.50;0.50;;;5.20;99.90;;;;;;5036416;28;20191;-68
2023/03/21 01:14:52;;;;;;;0.68;0.68;;;5.30;99.90;;;;;;5035716;28;20171;-69
2023/03/21 01:17:17;;;;;;;0.63;0.63;;;5.20;99.90;;;;;;5035610;28;20202;-69
2023/03/21 01:19:43;;;;;;;0.33;0.33;;;5.20;99.90;;;;;;5035690;28;20177;-69
2023/03/21 01:22:09;;;;;;;0.40;0.40;;;5.30;99.90;;;;;;5035532;28;20191;-69
2023/03/21 01:24:35;;;;;;;0.70;0.70;;;5.30;99.90;;;;;;5017824;28;20179;-68
2023/03/21 01:27:02;;;;;;;0.40;0.40;;;5.30;99.90;;;;;;5035469;28;20167;-69
2023/03/21 01:29:27;;;;;;;0.40;0.40;;;5.20;99.90;;;;;;5036128;28;20176;-68
2023/03/21 01:31:54;;;;;;;0.30;0.30;;;5.20;99.90;;;;;;5035654;28;20336;-68
2023/03/21 01:34:20;;;;;;;0.40;0.40;;;5.20;99.90;;;;;;5035466;28;20500;-69
2023/03/21 01:36:46;;;;;;;0.40;0.40;;;5.20;99.90;;;;;;5035202;28;20285;-69
2023/03/21 01:39:11;;;;;;;0.60;0.60;;;5.10;99.90;;;;;;5035672;28;20412;-68
2023/03/21 01:41:39;;;;;;;0.40;0.40;;;5.00;99.90;;;;;;5035706;28;20178;-68
2023/03/21 01:44:06;;;;;;;0.40;0.40;;;4.90;99.90;;;;;;5035282;28;20184;-68
2023/03/21 01:46:36;;;;;;;0.50;0.50;;;5.00;99.90;;;;;;5035060;28;20171;-69
2023/03/21 01:49:25;;;;;;;0.32;0.32;;;4.90;99.90;;;;;;5017543;28;20183;-68
2023/03/21 01:51:58;;;;;;;0.30;0.30;;;4.90;99.90;;;;;;5034977;28;20199;-69
2023/03/21 01:54:28;;;;;;;0.55;0.55;;;4.80;99.90;;;;;;5035708;28;20164;-69
2023/03/21 01:56:56;;;;;;;0.40;0.40;;;4.70;99.90;;;;;;5034915;28;20266;-68
2023/03/21 01:59:27;;;;;;;0.40;0.40;;;4.80;99.90;;;;;;5035148;28;20172;-69
2023/03/21 02:01:55;;;;;;;0.40;0.40;;;4.80;99.90;;;;;;5035000;28;20542;-68
2023/03/21 02:04:26;;;;;;;0.40;0.40;;;4.80;99.90;;;;;;5035332;28;20168;-69
2023/03/21 02:06:59;;;;;;;0.50;0.50;;;4.80;99.90;;;;;;5034762;28;20171;-69
2023/03/21 02:09:27;;;;;;;1.10;0.77;;;4.70;99.90;;;;;;5035161;28;20583;-68
2023/03/21 02:11:54;;;;;;;0.40;0.40;;;4.70;99.90;;;;;;5034572;28;20274;-68
2023/03/21 02:14:20;;;;;;;0.30;0.30;;;4.60;99.90;;;;;;5034981;28;20171;-68
2023/03/21 02:17:05;;;;;;;0.50;0.50;;;4.70;99.90;;;;;;5034508;28;20221;-69
2023/03/21 02:20:10;;;;;;;0.40;0.40;;;4.70;99.90;;;;;;5023917;28;20414;-67
2023/03/21 02:23:24;;;;;;;0.60;0.60;;;4.60;99.90;;;;;;5034418;28;20183;-68
2023/03/21 02:26:17;;;;;;;0.40;0.40;;;4.50;99.90;;;;;;5003564;28;20178;-69
2023/03/21 02:28:54;;;;;;;0.70;0.70;;;4.60;99.90;;;;;;5034697;28;20163;-69
2023/03/21 02:31:39;;;;;;;0.50;0.50;;;4.60;99.90;;;;;;5034718;28;20179;-69
2023/03/21 02:34:14;;;;;;;0.55;0.55;;;4.60;99.90;;;;;;5035010;28;20158;-68
2023/03/21 02:37:01;;;;;;;0.35;0.35;;;4.60;99.90;;;;;;5034318;28;20209;-69
2023/03/21 02:39:32;;;;;;;0.85;0.85;;;4.60;99.90;;;;;;5034132;28;20171;-68
2023/03/21 02:42:20;;;;;;;0.40;0.40;;;4.60;99.90;;;;;;5034389;28;20183;-69
2023/03/21 02:44:48;;;;;;;0.40;0.40;;;4.60;99.90;;;;;;5033536;28;20178;-69
2023/03/21 02:47:24;;;;;;;0.40;0.40;;;4.50;99.90;;;;;;5034089;28;20641;-69
2023/03/21 02:50:15;;;;;;;0.40;0.40;;;4.40;99.90;;;;;;5034348;28;20648;-68
2023/03/21 02:52:44;;;;;;;0.40;0.40;;;4.30;99.90;;;;;;5034171;28;20241;-69
2023/03/21 02:55:22;;;;;;;0.47;0.47;;;4.40;99.90;;;;;;5034625;28;20624;-69
2023/03/21 02:57:49;;;;;;;0.40;0.40;;;4.40;99.90;;;;;;5033867;28;20308;-69
2023/03/21 03:00:28;;;;;;;0.30;0.30;;;4.50;99.90;;;;;;5034137;28;20193;-69
2023/03/21 03:02:54;;;;;;;0.63;0.63;;;4.60;99.90;;;;;;5016113;28;20186;-69
2023/03/21 03:05:22;;;;;;;0.30;0.30;;;4.60;99.90;;;;;;5033979;28;20170;-68
2023/03/21 03:08:19;;;;;;;0.40;0.40;;;4.50;99.90;;;;;;5033626;28;20409;-68
2023/03/21 03:10:57;;;;;;;0.40;0.40;;;4.60;99.90;;;;;;5034054;28;20182;-68
2023/03/21 03:13:44;;;;;;;0.40;0.40;;;4.60;99.90;;;;;;5016472;28;20288;-68
2023/03/21 03:16:29;;;;;;;0.88;0.85;;;4.60;99.90;;;;;;5033624;28;20178;-69
2023/03/21 03:19:00;;;;;;;0.30;0.30;;;4.60;99.90;;;;;;5033997;28;20221;-68
2023/03/21 03:21:25;;;;;;;0.40;0.40;;;4.50;99.90;;;;;;5033853;28;20171;-68
2023/03/21 03:23:58;;;;;;;0.40;0.40;;;4.50;99.90;;;;;;5033683;28;20194;-69
2023/03/21 03:26:27;;;;;;;0.40;0.40;;;4.40;99.90;;;;;;5033851;28;20178;-68
2023/03/21 03:28:57;;;;;;;0.40;0.40;;;4.40;99.90;;;;;;5033548;28;20171;-68
2023/03/21 03:31:28;;;;;;;0.38;0.38;;;4.40;99.90;;;;;;5033826;28;20190;-68
2023/03/21 03:33:57;;;;;;;0.38;0.38;;;4.30;99.90;;;;;;5033368;28;20155;-69
2023/03/21 03:36:28;;;;;;;0.50;0.50;;;4.30;99.90;;;;;;5033479;28;20206;-68
2023/03/21 03:38:56;;;;;;;0.38;0.38;;;4.30;99.90;;;;;;5033551;28;20272;-69
2023/03/21 03:41:26;;;;;;;0.40;0.40;;;4.20;99.90;;;;;;5033273;28;20173;-68
2023/03/21 03:43:55;;;;;;;0.40;0.40;;;4.20;99.90;;;;;;5033033;28;20206;-69
2023/03/21 03:47:00;;;;;;;0.40;0.40;;;4.30;99.90;;;;;;5033365;28;20174;-68
2023/03/21 03:49:31;;;;;;;0.30;0.30;;;4.50;99.90;;;;;;5033484;28;20205;-69
2023/03/21 03:52:10;;;;;;;0.30;0.30;;;4.50;99.90;;;;;;5033168;28;20190;-69
2023/03/21 03:54:45;;;;;;;5.75;2.55;;;4.50;99.90;;;;;;5033707;28;20162;-68
2023/03/21 03:57:12;;;;;;;0.30;0.30;;;4.50;99.90;;;;;;5033856;28;20202;-68
2023/03/21 03:59:40;;;;;;;0.38;0.38;;;4.40;99.90;;;;;;5037715;28;20178;-69
2023/03/21 04:02:06;;;;;;;0.40;0.40;;;4.30;99.90;;;;;;5037045;28;20610;-68
2023/03/21 04:04:32;;;;;;;0.40;0.40;;;4.40;99.90;;;;;;5037353;28;20171;-68
2023/03/21 04:06:59;;;;;;;0.40;0.40;;;4.50;99.90;;;;;;5037008;28;20171;-67
2023/03/21 04:09:27;;;;;;;0.40;0.40;;;4.50;99.90;;;;;;5037223;28;20176;-68
2023/03/21 04:11:53;;;;;;;0.40;0.40;;;4.50;99.90;;;;;;5037349;28;20259;-68
2023/03/21 04:14:19;;;;;;;0.40;0.40;;;4.40;99.90;;;;;;5036904;28;20202;-68
2023/03/21 04:16:45;;;;;;;0.40;0.40;;;4.30;99.90;;;;;;5036806;28;20222;-68
2023/03/21 04:19:11;;;;;;;0.35;0.35;;;4.30;99.90;;;;;;5037001;28;20405;-69
2023/03/21 04:21:37;;;;;;;0.40;0.40;;;4.30;99.90;;;;;;5037327;28;20171;-68
2023/03/21 04:24:04;;;;;;;3.25;0.93;;;4.30;99.90;;;;;;5037252;28;20570;-68
2023/03/21 04:26:32;;;;;;;0.30;0.30;;;4.30;99.90;;;;;;5036945;28;20553;-68
2023/03/21 04:29:02;;;;;;;0.40;0.40;;;4.20;99.90;;;;;;5037060;28;20242;-68
2023/03/21 04:31:30;;;;;;;0.40;0.40;;;4.10;99.90;;;;;;5037123;28;20628;-68
2023/03/21 04:34:00;;;;;;;0.40;0.40;;;4.20;99.90;;;;;;5036946;28;20171;-68
2023/03/21 04:36:32;;;;;;;0.40;0.40;;;4.30;99.90;;;;;;5036490;28;20199;-67
2023/03/21 04:39:02;;;;;;;0.40;0.40;;;4.30;99.90;;;;;;5037092;28;20258;-69
2023/03/21 04:41:28;;;;;;;0.30;0.30;;;4.30;99.90;;;;;;5036493;28;20257;-69
2023/03/21 04:43:54;;;;;;;0.40;0.40;;;4.20;99.90;;;;;;5036625;28;20274;-68
2023/03/21 04:46:21;;;;;;;0.60;0.60;;;4.30;99.90;;;;;;5036281;28;20163;-69
2023/03/21 04:48:47;;;;;;;0.30;0.30;;;4.20;99.90;;;;;;5036452;28;20253;-68
2023/03/21 04:51:14;;;;;;;0.32;0.32;;;4.30;99.90;;;;;;5036303;28;20170;-69
2023/03/21 04:53:43;;;;;;;0.40;0.40;;;4.40;99.90;;;;;;5036112;28;20205;-69
2023/03/21 04:56:10;;;;;;;0.40;0.40;;;4.40;99.90;;;;;;5035937;28;20513;-68
2023/03/21 04:58:36;;;;;;;0.30;0.30;;;4.50;99.90;;;;;;5036096;28;20179;-69
2023/03/21 05:01:04;;;;;;;0.30;0.30;;;4.60;99.90;;;;;;5036399;28;20163;-68
2023/03/21 05:03:33;;;;;;;0.40;0.40;;;4.50;99.90;;;;;;5035897;28;20183;-69
2023/03/21 05:06:02;;;;;;;0.40;0.40;;;4.40;99.90;;;;;;5036372;28;20584;-69
2023/03/21 05:08:27;;;;;;;0.50;0.50;;;4.30;99.90;;;;;;5036143;28;20171;-67
2023/03/21 05:10:53;;;;;;;3.40;3.13;;;4.20;99.90;;;;;;5036010;28;20262;-69
2023/03/21 05:13:19;;;;;;;0.47;0.47;;;4.10;99.90;;;;;;5036051;28;20195;-67
2023/03/21 05:15:45;;;;;;;0.40;0.40;;;4.20;99.90;;;;;;5036128;28;20169;-68
2023/03/21 05:18:11;;;;;;;0.60;0.60;;;4.20;99.90;;;;;;5036159;28;20286;-68
2023/03/21 05:20:43;;;;;;;0.40;0.40;;;4.20;99.90;;;;;;5036291;28;20254;-69
2023/03/21 05:23:10;;;;;;;0.40;0.40;;;4.30;99.90;;;;;;5035644;28;20274;-67
2023/03/21 05:25:37;;;;;;;0.30;0.30;;;4.40;99.90;;;;;;5035521;28;20166;-69
2023/03/21 05:28:05;;;;;;;0.30;0.30;;;4.50;99.90;;;;;;5035385;28;20175;-67
2023/03/21 05:30:31;;;;;;;1.05;0.85;;;4.50;99.90;;;;;;5035924;28;20182;-68
2023/03/21 05:32:57;;;;;;;0.30;0.30;;;4.40;99.90;;;;;;5035455;28;20194;-69
2023/03/21 05:35:22;;;;;;;0.83;0.83;;;4.50;99.90;;;;;;5035344;28;20182;-69
2023/03/21 05:37:48;;;;;;;1.07;1.07;;;4.50;99.90;;;;;;5035142;28;20301;-68
2023/03/21 05:40:14;;;;;;;0.30;0.30;;;4.50;99.90;;;;;;5035526;28;20250;-68
2023/03/21 05:42:40;;;;;;;0.30;0.30;;;4.50;99.90;;;;;;5035704;28;20187;-69
2023/03/21 05:45:06;;;;;;;0.40;0.40;;;4.60;99.90;;;;;;5035782;28;20480;-68
2023/03/21 05:47:32;;;;;;;0.70;0.70;;;4.80;99.90;;;;;;5035099;28;20774;-68
2023/03/21 05:49:57;;;;;;;0.40;0.40;;;4.90;99.90;;;;;;5035772;28;20179;-69
2023/03/21 05:52:23;;;;;;;0.40;0.40;;;5.00;99.90;;;;;;5035121;28;20440;-69
2023/03/21 05:54:49;;;;;;;0.30;0.30;;;5.10;99.90;;;;;;5035265;28;20170;-68
2023/03/21 05:57:17;;;;;;;0.40;0.40;;;5.10;99.90;;;;;;5035186;28;20202;-68
2023/03/21 05:59:43;;;;;;;1.05;0.70;;;5.20;99.90;;;;;;5034942;28;20595;-68
2023/03/21 06:02:10;;;;;;;0.60;0.60;;;5.20;99.90;;;;;;5035192;28;20278;-69
2023/03/21 06:04:36;;;;;;;0.40;0.40;;;5.30;99.90;;;;;;5035479;28;20418;-69
2023/03/21 06:07:01;;;;;;;0.70;0.70;;;5.40;99.90;;;;;;5034870;28;20190;-68
2023/03/21 06:09:27;;;;;;;0.40;0.40;;;5.40;99.90;;;;;;5035073;28;20171;-69
2023/03/21 06:11:55;;;;;;;0.40;0.40;;;5.40;99.90;;;;;;5034948;28;20188;-68
2023/03/21 06:14:22;;;;;;;0.40;0.40;;;5.40;99.90;;;;;;5035117;28;20167;-67
2023/03/21 06:16:48;;;;;;;0.40;0.40;;;5.50;99.90;;;;;;5034623;28;20198;-69
2023/03/21 06:19:13;;;;;;;0.70;0.70;;;5.50;99.90;;;;;;5034242;28;20177;-68
2023/03/21 06:21:39;;;;;;;0.53;0.47;;;5.50;99.90;;;;;;5034074;28;20174;-69
2023/03/21 06:24:05;;;;;;;0.40;0.40;;;5.60;99.90;;;;;;5034771;28;20904;-68
2023/03/21 06:26:31;;;;;;;0.40;0.40;;;5.60;99.90;;;;;;5034318;28;20171;-68
2023/03/21 06:28:56;;;;;;;0.80;0.80;;;5.80;99.90;;;;;;5034863;28;20413;-68
2023/03/21 06:31:23;;;;;;;1.27;0.73;;;5.70;99.90;;;;;;5034742;28;20649;-69
2023/03/21 06:33:50;;;;;;;0.40;0.40;;;5.90;99.90;;;;;;5017022;28;20195;-69
2023/03/21 06:36:17;;;;;;;0.40;0.40;;;6.00;99.90;;;;;;5034018;28;20254;-68
2023/03/21 06:38:42;;;;;;;0.50;0.50;;;6.10;99.90;;;;;;5035421;28;20184;-68
2023/03/21 06:41:11;;;;;;;0.87;0.70;;;6.20;99.90;;;;;;5035032;28;20176;-68
2023/03/21 06:43:37;;;;;;;3.08;1.50;;;6.40;99.90;;;;;;5034490;28;20203;-68
2023/03/21 06:46:02;;;;;;;1.23;1.23;;;6.50;99.90;;;;;;5035999;28;20269;-68
2023/03/21 06:48:28;;;;;;;1.50;1.40;;;6.60;99.90;;;;;;5016661;28;20176;-69
2023/03/21 06:50:55;;;;;;;0.80;0.57;;;6.80;99.90;;;;;;5034688;28;20254;-68
2023/03/21 06:53:23;;;;;;;2.20;1.08;;;7.20;99.90;;;;;;5034293;28;20197;-69
2023/03/21 06:55:50;;;;;;;1.52;1.42;;;7.80;99.90;;;;;;5034000;28;20599;-68
2023/03/21 06:58:20;;;;;;;0.40;0.40;;;8.50;99.90;;;;;;5035294;28;20202;-68
2023/03/21 07:00:46;;;;;;;2.25;1.25;;;9.20;99.90;;;;;;5034514;28;20636;-69
2023/03/21 07:03:12;;;;;;;1.30;1.20;;;9.90;98.80;;;;;;5033808;28;20198;-69
2023/03/21 07:05:38;;;;;;;1.80;1.50;;;10.60;96.40;;;;;;5033944;28;20575;-68
2023/03/21 07:08:05;;;;;;;2.40;1.57;;;11.40;95.50;;;;;;5033847;28;20178;-69
2023/03/21 07:10:31;;;;;;;0.70;0.63;;;12.30;93.80;;;;;;5034086;28;20414;-68
2023/03/21 07:13:00;;;;;;;1.17;0.90;;;13.20;91.60;;;;;;5033568;28;20913;-69
2023/03/21 07:15:25;;;;;;;0.87;0.70;;;14.10;90.00;;;;;;5034307;28;20444;-70
2023/03/21 07:17:51;;;;;;;2.20;2.10;;;15.00;86.30;;;;;;5033471;28;20485;-69
2023/03/21 07:20:17;;;;;;;1.90;1.00;;;16.00;83.40;;;;;;5033885;28;20231;-69
2023/03/21 07:22:43;;;;;;;1.00;1.00;;;17.10;80.10;;;;;;5033828;28;20421;-70
2023/03/21 07:25:09;;;;;;;0.73;0.73;;;18.00;75.70;;;;;;5034042;28;20183;-70
2023/03/21 07:27:35;;;;;;;0.50;0.50;;;18.90;71.00;;;;;;5033409;28;20175;-70
2023/03/21 07:30:02;;;;;;;1.73;0.60;;;19.70;68.40;;;;;;5033727;28;20891;-70
2023/03/21 07:32:32;;;;;;;0.50;0.50;;;20.40;64.60;;;;;;5033667;28;20820;-70
2023/03/21 07:34:59;;;;;;;0.70;0.60;;;21.10;60.90;;;;;;5033559;28;20391;-70
2023/03/21 07:37:25;;;;;;;0.50;0.50;;;21.40;59.50;;;;;;5033450;28;20427;-70
2023/03/21 07:39:51;;;;;;;1.13;1.00;;;21.80;58.30;;;;;;5033884;28;20401;-69
2023/03/21 07:42:18;;;;;;;0.70;0.70;;;22.20;57.40;;;;;;5033671;28;20429;-70
2023/03/21 07:44:43;;;;;;;1.00;1.00;;;22.60;56.00;;;;;;5033407;28;20826;-70
2023/03/21 07:47:09;;;;;;;0.67;0.67;;;23.00;54.50;;;;;;5033216;28;21003;-69
2023/03/21 07:49:36;;;;;;;0.60;0.60;;;23.50;53.90;;;;;;5033948;28;20166;-70
2023/03/21 07:52:02;;;;;;;0.97;0.80;;;23.90;51.10;;;;;;5033277;28;20237;-70
2023/03/21 07:54:28;;;;;;;1.33;0.83;;;23.70;50.60;;;;;;5016133;28;20973;-69
2023/03/21 07:56:55;;;;;;;0.67;0.67;;;23.40;51.40;;;;;;5033240;28;20499;-69
2023/03/21 07:59:21;;;;;;;1.37;0.60;;;23.00;51.60;;;;;;5033304;28;20496;-70
2023/03/21 08:01:47;;;;;;;0.63;0.50;;;22.60;52.60;;;;;;5031401;28;20404;-69
2023/03/21 08:04:13;;;;;;;0.83;0.60;;;22.20;52.50;;;;;;5032503;28;20411;-70
2023/03/21 08:06:39;;;;;;;0.70;0.53;;;21.90;52.10;;;;;;5032990;28;20576;-70
2023/03/21 08:09:05;;;;;;;0.70;0.70;;;21.50;52.50;;;;;;5032990;28;20733;-70
2023/03/21 08:11:31;;;;;;;0.70;0.67;;;21.30;52.70;;;;;;5032839;28;20426;-70
2023/03/21 08:13:58;;;;;;;0.50;0.50;;;21.00;53.80;;;;;;5032967;28;20434;-69
2023/03/21 08:16:24;;;;;;;1.27;0.70;;;20.60;54.50;;;;;;5032975;28;20233;-70
2023/03/21 08:18:49;;;;;;;0.93;0.90;;;20.20;55.40;;;;;;5033292;28;20904;-69
2023/03/21 08:21:15;;;;;;;1.57;1.33;;;19.70;55.40;;;;;;5032991;28;20232;-69
2023/03/21 08:23:41;;;;;;;1.03;0.87;;;19.40;55.60;;;;;;5032820;28;20189;-70
2023/03/21 08:26:08;;;;;;;0.93;0.80;;;19.20;55.90;;;;;;5032859;28;20171;-69
2023/03/21 08:28:35;;;;;;;1.07;0.97;;;19.00;55.90;;;;;;5033068;28;20631;-69
2023/03/21 08:31:07;;;;;;;0.60;0.50;;;18.90;56.80;;;;;;5032861;28;20410;-69
2023/03/21 08:33:32;;;;;;;1.70;1.50;;;18.80;56.90;;;;;;5032798;28;20433;-69
2023/03/21 08:35:59;;;;;;;2.00;0.93;;;18.70;57.20;;;;;;5032753;28;20482;-70
2023/03/21 08:38:28;;;;;;;1.10;1.00;;;18.50;57.40;;;;;;5032871;28;20807;-70
2023/03/21 08:40:54;;;;;;;2.47;1.03;;;18.30;57.70;;;;;;5032841;28;20402;-68
2023/03/21 08:43:20;;;;;;;0.77;0.77;;;18.20;58.60;;;;;;5033631;28;20498;-70
2023/03/21 08:45:45;;;;;;;0.90;0.90;;;17.90;59.00;;;;;;5036211;28;20414;-69
2023/03/21 08:48:11;;;;;;;0.47;0.47;;;17.70;59.50;;;;;;5036690;28;20529;-69
2023/03/21 08:50:37;;;;;;;0.80;0.80;;;17.30;60.40;;;;;;5036421;28;20717;-69
2023/03/21 08:53:02;;;;;;;0.50;0.50;;;17.10;62.80;;;;;;5036144;28;20190;-69
2023/03/21 08:55:30;;;;;;;0.93;0.93;;;17.00;62.80;;;;;;5036137;28;20185;-70
2023/03/21 08:57:57;;;;;;;0.53;0.53;;;16.70;62.40;;;;;;5035871;28;20203;-69
2023/03/21 09:00:22;;;;;;;2.40;2.30;;;16.40;63.50;;;;;;5036294;28;20412;-69
2023/03/21 09:02:50;;;;;;;1.87;1.27;;;16.40;63.50;;;;;;5035898;28;20780;-69
2023/03/21 09:05:17;;;;;;;1.90;1.07;;;16.30;62.90;;;;;;5036015;28;20401;-69
2023/03/21 09:07:44;;;;;;;0.60;0.60;;;16.10;63.10;;;;;;5036002;28;20406;-69
2023/03/21 09:10:12;;;;;;;0.63;0.63;;;15.80;63.80;;;;;;5036050;28;20409;-68
2023/03/21 09:12:39;;;;;;;0.50;0.50;;;15.70;63.80;;;;;;5035720;28;20440;-69
2023/03/21 09:15:07;;;;;;;0.77;0.70;;;15.70;63.40;;;;;;5035960;28;20405;-69
2023/03/21 09:17:32;;;;;;;1.20;1.10;;;16.10;62.80;;;;;;5035526;28;20457;-69
2023/03/21 09:19:59;;;;;;;0.40;0.40;;;16.50;61.50;;;;;;5035810;28;20405;-69
2023/03/21 09:22:26;;;;;;;0.53;0.53;;;16.80;60.90;;;;;;5035717;28;20188;-70
2023/03/21 09:24:52;;;;;;;0.80;0.80;;;17.10;59.60;;;;;;5035604;28;20407;-70
2023/03/21 09:27:22;;;;;;;1.90;0.93;;;17.40;59.00;;;;;;5035439;28;20992;-70
2023/03/21 09:29:51;;;;;;;0.60;0.60;;;17.70;58.50;;;;;;5035586;28;20398;-69
2023/03/21 09:32:17;;;;;;;0.60;0.60;;;17.80;57.50;;;;;;5035660;28;20790;-70
2023/03/21 09:34:43;;;;;;;0.30;0.30;;;17.90;57.50;;;;;;5035490;28;20412;-70
2023/03/21 09:37:11;;;;;;;0.90;0.50;;;18.20;57.00;;;;;;5033822;28;20445;-70
2023/03/21 09:39:41;;;;;;;0.70;0.70;;;18.20;56.80;;;;;;5034445;28;20433;-69
2023/03/21 09:42:44;;;;;;;0.80;0.80;;;18.30;57.20;;;;;;5035222;28;20830;-70
2023/03/21 09:45:39;;;;;;;0.80;0.50;;;18.50;55.80;;;;;;4985217;28;20512;-70
2023/03/21 09:48:16;;;;;;;0.97;0.90;;;18.30;56.00;;;;;;5017337;28;20420;-69
2023/03/21 09:50:42;;;;;;;0.40;0.40;;;18.20;55.80;;;;;;5035141;28;20983;-69
2023/03/21 09:53:23;;;;;;;0.40;0.40;;;18.00;56.10;;;;;;5035028;28;20431;-69
2023/03/21 09:55:50;;;;;;;0.73;0.70;;;18.20;56.10;;;;;;5033794;28;20422;-70
2023/03/21 09:58:52;;;;;;;1.23;0.80;;;18.30;56.00;;;;;;5034852;28;20463;-69
2023/03/21 10:01:31;;;;;;;0.40;0.40;;;18.20;55.60;;;;;;5024711;28;20853;-69
2023/03/21 10:04:00;;;;;;;0.73;0.73;;;18.20;55.80;;;;;;5034960;28;20477;-69
2023/03/21 10:06:29;;;;;;;0.40;0.40;;;18.20;56.20;;;;;;5034800;28;20408;-70
2023/03/21 10:09:06;;;;;;;0.50;0.50;;;18.40;56.20;;;;;;5034590;28;20409;-70
2023/03/21 10:11:49;;;;;;;0.93;0.83;;;18.50;55.20;;;;;;5034803;28;20952;-69
2023/03/21 10:14:20;;;;;;;0.70;0.70;;;18.70;55.50;;;;;;5034759;28;20456;-70
2023/03/21 10:16:50;;;;;;;0.43;0.43;;;18.70;54.40;;;;;;5034400;28;20449;-69
2023/03/21 10:19:19;;;;;;;0.50;0.50;;;18.60;55.20;;;;;;5034790;28;20409;-70
2023/03/21 10:21:50;;;;;;;0.40;0.40;;;18.70;54.70;;;;;;5034487;28;20927;-69
2023/03/21 10:24:20;;;;;;;0.40;0.40;;;18.50;53.60;;;;;;5034477;28;20417;-70
2023/03/21 10:26:48;;;;;;;0.40;0.40;;;18.50;53.90;;;;;;5034322;28;20910;-69
2023/03/21 10:29:16;;;;;;;0.40;0.40;;;18.60;52.90;;;;;;5034522;28;20821;-69
2023/03/21 10:31:43;;;;;;;0.70;0.70;;;18.60;53.70;;;;;;5034323;28;20501;-69
2023/03/21 10:34:35;;;;;;;0.40;0.40;;;18.30;52.70;;;;;;5034468;28;20420;-70
2023/03/21 10:37:02;;;;;;;1.23;0.70;;;18.50;53.90;;;;;;5034149;28;20821;-70
2023/03/21 10:39:38;;;;;;;0.50;0.50;;;18.50;52.90;;;;;;5034853;28;20412;-70
2023/03/21 10:42:04;;;;;;;0.40;0.40;;;18.80;53.00;;;;;;5034363;28;20432;-70
2023/03/21 10:44:32;;;;;;;0.50;0.50;;;19.30;52.30;;;;;;5034091;28;20516;-69
2023/03/21 10:47:04;;;;;;;0.30;0.30;;;19.70;51.90;;;;;;5034135;28;20405;-68
2023/03/21 10:49:31;;;;;;;0.70;0.40;;;19.90;52.30;;;;;;5033900;28;20461;-69
2023/03/21 10:52:00;;;;;;;0.40;0.40;;;20.00;50.60;;;;;;5034190;28;20511;-70
2023/03/21 10:54:32;;;;;;;0.60;0.50;;;19.90;49.30;;;;;;5033937;28;20907;-69
2023/03/21 10:57:01;;;;;;;0.90;0.40;;;19.80;48.50;;;;;;5033767;28;20968;-70
2023/03/21 10:59:36;;;;;;;0.50;0.50;;;19.20;48.50;;;;;;5033970;28;20410;-70
2023/03/21 11:02:03;;;;;;;0.47;0.47;;;18.70;49.20;;;;;;5033824;28;20424;-69
2023/03/21 11:04:29;;;;;;;0.70;0.70;;;18.40;50.20;;;;;;5033962;28;20537;-70
2023/03/21 11:06:58;;;;;;;0.30;0.30;;;18.60;49.60;;;;;;5033199;28;20889;-70
2023/03/21 11:09:41;;;;;;;0.30;0.30;;;18.90;49.90;;;;;;5033761;28;20324;-70
2023/03/21 11:12:13;;;;;;;0.50;0.40;;;19.10;48.80;;;;;;5033892;28;20479;-70
2023/03/21 11:14:42;;;;;;;0.40;0.40;;;19.20;48.70;;;;;;5033496;28;20453;-69
2023/03/21 11:17:17;;;;;;;0.30;0.30;;;19.20;48.30;;;;;;5015605;28;20449;-69
2023/03/21 11:19:59;;;;;;;0.30;0.30;;;19.00;47.40;;;;;;5015841;28;21004;-69
2023/03/21 11:22:30;;;;;;;0.50;0.50;;;18.70;47.80;;;;;;5033722;28;20468;-70
2023/03/21 11:25:02;;;;;;;0.57;0.57;;;18.50;49.50;;;;;;5033518;28;20742;-70
2023/03/21 11:27:30;;;;;;;1.73;0.67;;;18.50;48.50;;;;;;5017186;28;20456;-70
2023/03/21 11:29:58;;;;;;;0.30;0.30;;;18.70;48.40;;;;;;5031597;28;20428;-70
2023/03/21 11:32:25;;;;;;;0.77;0.50;;;18.70;48.30;;;;;;5030918;28;20454;-70
2023/03/21 11:34:58;;;;;;;0.40;0.40;;;18.30;49.70;;;;;;5032928;28;20781;-70
2023/03/21 11:37:46;;;;;;;0.40;0.40;;;18.10;49.60;;;;;;5033145;28;20457;-70
2023/03/21 11:40:26;;;;;;;0.47;0.47;;;18.00;49.40;;;;;;5033556;28;20405;-70
2023/03/21 11:42:53;;;;;;;0.60;0.60;;;17.90;46.90;;;;;;5033084;28;20427;-70
2023/03/21 11:45:25;;;;;;;0.30;0.30;;;17.80;47.20;;;;;;5033424;28;20437;-70
2023/03/21 11:47:53;;;;;;;0.40;0.40;;;17.90;47.10;;;;;;5033126;28;20485;-70
2023/03/21 11:50:25;;;;;;;1.23;0.73;;;18.00;48.10;;;;;;5033215;28;20428;-70
2023/03/21 11:53:13;;;;;;;0.60;0.60;;;18.20;47.40;;;;;;5030068;28;20525;-69
2023/03/21 11:56:09;;;;;;;0.30;0.30;;;18.20;47.10;;;;;;5033162;28;20427;-70
2023/03/21 11:59:02;;;;;;;0.40;0.40;;;18.20;47.00;;;;;;5033253;28;20454;-70
2023/03/21 12:01:36;;;;;;;0.50;0.40;;;18.40;46.90;;;;;;5033157;28;20406;-70
2023/03/21 12:04:30;;;;;;;0.60;0.60;;;18.30;43.10;;;;;;5033238;28;20407;-70
2023/03/21 12:07:04;;;;;;;0.40;0.40;;;18.20;44.40;;;;;;5032966;28;20899;-69
2023/03/21 12:09:35;;;;;;;0.40;0.40;;;18.20;44.50;;;;;;5031594;28;20492;-69
2023/03/21 12:12:13;;;;;;;0.40;0.40;;;18.30;43.90;;;;;;5032158;28;20436;-70
2023/03/21 12:14:43;;;;;;;0.50;0.50;;;18.20;44.50;;;;;;5033072;28;20406;-69
2023/03/21 12:17:13;;;;;;;0.30;0.30;;;18.10;46.90;;;;;;5015123;28;20453;-70
2023/03/21 12:20:00;;;;;;;0.53;0.53;;;18.10;46.90;;;;;;5036089;28;20786;-70
2023/03/21 12:22:48;;;;;;;0.40;0.40;;;18.30;47.20;;;;;;5036871;28;20417;-69
2023/03/21 12:25:26;;;;;;;0.40;0.40;;;18.00;46.30;;;;;;5036886;28;20386;-70
2023/03/21 12:28:15;;;;;;;0.50;0.50;;;17.90;45.00;;;;;;5036721;28;20405;-70
2023/03/21 12:31:12;;;;;;;0.30;0.30;;;17.60;45.70;;;;;;5036906;28;20910;-70
2023/03/21 12:34:04;;;;;;;0.40;0.40;;;17.20;46.50;;;;;;5036561;28;20520;-70
2023/03/21 12:36:46;;;;;;;0.30;0.30;;;17.00;49.60;;;;;;5036496;28;20444;-70
2023/03/21 12:39:29;;;;;;;0.30;0.30;;;17.30;48.10;;;;;;5036572;28;20496;-70
2023/03/21 12:42:19;;;;;;;0.30;0.30;;;17.40;46.50;;;;;;5036515;28;20428;-70
2023/03/21 12:44:50;;;;;;;0.40;0.40;;;16.50;48.00;;;;;;5036314;28;20946;-69
2023/03/21 12:47:30;;;;;;;0.40;0.40;;;16.30;48.70;;;;;;5036280;28;20405;-69
2023/03/21 12:50:13;;;;;;;0.40;0.40;;;16.20;51.10;;;;;;5036362;28;20762;-69
2023/03/21 12:52:43;;;;;;;0.40;0.40;;;16.60;51.90;;;;;;5036265;28;20429;-70
2023/03/21 12:55:22;;;;;;;0.70;0.70;;;17.00;50.90;;;;;;5036164;28;20409;-70
2023/03/21 12:57:49;;;;;;;0.40;0.40;;;17.40;50.70;;;;;;5018345;28;21055;-69
2023/03/21 13:00:28;;;;;;;0.43;0.43;;;17.50;51.20;;;;;;5036113;28;20753;-70
2023/03/21 13:03:11;;;;;;;0.30;0.30;;;17.70;49.80;;;;;;5036222;28;20426;-69
2023/03/21 13:05:45;;;;;;;0.40;0.40;;;18.00;50.40;;;;;;5036004;28;20916;-69
2023/03/21 13:08:22;;;;;;;0.40;0.40;;;18.10;49.80;;;;;;5036196;28;20768;-68
2023/03/21 13:10:48;;;;;;;0.40;0.40;;;18.10;49.30;;;;;;5036151;28;20903;-70